Portada
METAR-TAF:

METAR-TAF

Aeroports :

Vijayawada, Índia

latitud: 16-31-44N, longitud: 80-47-45E, altitud: 25 m

Observació

L'informe es va fer fa 35 minuts, a les 09:00 UTC
Vent 2 kt del Sud-Est
Temperatura 33°C
Humitat 71%
Pressió 1005 hPa
Visibilitat: 5000 m
Escasses núvols a una alçada de 2000 ft
calitja

METAR: VOBZ 240900Z 14002KT 5000 HZ FEW020 33/27 Q1005 NOSIG

Hora: 15:05 (09:35 UTC)

Pronòstic

L'informe es va fer fa 1 hora i 35 minuts, a les 08:00 UTC
Pronòstic vàlid del 24 a les 09 UTC al 24 a les 18 UTC
Vent 6 kt del Est/Nord-Est
Visibilitat: 5000 m
Núvols disperses a una alçada de 1500 ft
Núvols disperses a una alçada de 10000 ft
calitja

TAF: VOBZ 240800Z 2409/2418 07006KT 5000 HZ SCT015 SCT100

Observacions i pronòstics meteorològics de més de 4000 aeroports (METAR i TAF).

Les estacions disponibles són els punts grocs i vermells al mapa.

Posi el ratolí al punt desitjat per veure el nom de l'estació.

Feu clic per veure les observacions i els pronòstics meteorològics.

Per canviar el mapa: feu clic els botons verds amb una creu de color negre per apropar; al botó verd amb un guió per allunyar la imatge; o en les fletxes verdes per a mapes adjacents.


METAR-TAF: